Time;durP1;ratioP1;P1;durP2;ratioP2;P2;SDS_P1;SDS_P2;PMS_P1;PMS_P2;Temp;Humidity;BMP_temperature;BMP_pressure;BME280_temperature;BME280_humidity;BME280_pressure;Samples;Min_cycle;Max_cycle;Signal;HPM_P1;HPM_P2
2024/03/20 00:00:30;;;;;;;;;;;;;;;10.70;45.70;101213.66;4984996;27;99271;-73
2024/03/20 00:02:56;;;;;;;;;;;;;;;10.66;45.55;101209.81;4983326;27;100067;-70
2024/03/20 00:05:23;;;;;;;;;;;;;;;10.65;45.62;101212.75;4972947;27;97948;-70
2024/03/20 00:07:49;;;;;;;;;;;;;;;10.62;45.66;101213.28;4989243;27;98231;-71
2024/03/20 00:10:16;;;;;;;;;;;;;;;10.60;45.92;101215.38;4971140;27;99123;-70
2024/03/20 00:12:43;;;;;;;;;;;;;;;10.57;45.65;101212.13;4984072;27;98120;-70
2024/03/20 00:15:10;;;;;;;;;;;;;;;10.56;45.62;101201.59;4998463;27;97827;-70
2024/03/20 00:17:36;;;;;;;;;;;;;;;10.54;46.00;101204.53;4972888;27;97962;-73
2024/03/20 00:20:03;;;;;;;;;;;;;;;10.52;45.49;101198.56;4991185;27;98303;-70
2024/03/20 00:22:34;;;;;;;;;;;;;;;10.50;45.25;101189.94;5006665;27;98233;-73
2024/03/20 00:25:00;;;;;;;;;;;;;;;10.48;45.96;101189.34;4982208;27;98146;-73
2024/03/20 00:27:26;;;;;;;;;;;;;;;10.46;45.48;101191.50;4987808;27;98405;-70
2024/03/20 00:29:53;;;;;;;;;;;;;;;10.46;45.39;101186.09;5002925;27;98144;-73
2024/03/20 00:32:19;;;;;;;;;;;;;;;10.45;45.38;101187.19;4997982;27;98114;-70
2024/03/20 00:34:46;;;;;;;;;;;;;;;10.43;46.05;101183.09;4981479;27;98175;-70
2024/03/20 00:37:12;;;;;;;;;;;;;;;10.42;45.95;101182.28;4982597;27;98257;-69
2024/03/20 00:39:39;;;;;;;;;;;;;;;10.41;45.74;101180.63;4981916;27;98391;-74
2024/03/20 00:42:05;;;;;;;;;;;;;;;10.38;45.73;101189.22;4966542;27;98943;-70
2024/03/20 00:44:36;;;;;;;;;;;;;;;10.38;45.84;101178.44;4966707;27;97919;-71
2024/03/20 00:47:05;;;;;;;;;;;;;;;10.35;45.70;101176.25;4995849;27;98326;-73
2024/03/20 00:49:31;;;;;;;;;;;;;;;10.34;46.00;101174.63;5005627;27;98222;-73
2024/03/20 00:51:58;;;;;;;;;;;;;;;10.32;45.99;101174.84;5002902;27;98307;-71
2024/03/20 00:54:25;;;;;;;;;;;;;;;10.31;45.38;101172.41;4986728;27;97997;-70
2024/03/20 00:56:52;;;;;;;;;;;;;;;10.29;45.73;101164.56;4982474;27;98166;-70
2024/03/20 00:59:20;;;;;;;;;;;;;;;10.26;45.47;101164.28;4966188;27;97957;-73
2024/03/20 01:01:47;;;;;;;;;;;;;;;10.25;45.54;101159.94;4977621;27;99914;-70
2024/03/20 01:04:14;;;;;;;;;;;;;;;10.22;45.81;101161.22;4995920;27;98286;-73
2024/03/20 01:06:40;;;;;;;;;;;;;;;10.21;45.89;101156.88;4969245;27;98250;-70
2024/03/20 01:09:07;;;;;;;;;;;;;;;10.19;45.64;101160.91;4958445;27;98744;-70
2024/03/20 01:11:34;;;;;;;;;;;;;;;10.18;45.98;101162.78;4984128;27;98106;-73
2024/03/20 01:14:01;;;;;;;;;;;;;;;10.16;45.75;101156.00;4965693;27;98355;-73
2024/03/20 01:16:28;;;;;;;;;;;;;;;10.14;45.79;101150.88;4969502;27;98432;-73
2024/03/20 01:18:55;;;;;;;;;;;;;;;10.13;45.87;101149.22;4978408;27;98073;-73
2024/03/20 01:21:21;;;;;;;;;;;;;;;10.11;45.64;101148.66;4964830;27;100499;-70
2024/03/20 01:23:47;;;;;;;;;;;;;;;10.11;45.41;101145.16;4955029;27;99954;-71
2024/03/20 01:26:14;;;;;;;;;;;;;;;10.09;45.95;101143.50;4983596;27;98145;-70
2024/03/20 01:28:41;;;;;;;;;;;;;;;10.07;45.81;101153.72;4973732;27;98510;-73
2024/03/20 01:31:10;;;;;;;;;;;;;;;10.06;45.43;101144.03;4982883;27;98213;-70
2024/03/20 01:33:37;;;;;;;;;;;;;;;10.04;45.93;101146.13;4956166;27;99195;-70
2024/03/20 01:36:04;;;;;;;;;;;;;;;10.03;45.90;101147.22;4965498;27;98263;-73
2024/03/20 01:38:30;;;;;;;;;;;;;;;10.02;45.58;101152.81;4986287;27;98144;-73
2024/03/20 01:40:56;;;;;;;;;;;;;;;10.01;46.18;101148.50;4982599;27;100683;-73
2024/03/20 01:43:23;;;;;;;;;;;;;;;9.99;45.81;101151.47;4980798;27;97963;-70
2024/03/20 01:45:49;;;;;;;;;;;;;;;9.97;45.89;101142.78;4982419;27;98248;-70
2024/03/20 01:48:19;;;;;;;;;;;;;;;9.95;45.90;101136.84;4959091;27;98002;-73
2024/03/20 01:50:46;;;;;;;;;;;;;;;9.94;45.81;101140.63;4977872;27;97826;-73
2024/03/20 01:53:15;;;;;;;;;;;;;;;9.92;45.54;101141.91;4967178;27;98197;-70
2024/03/20 01:55:42;;;;;;;;;;;;;;;9.90;45.78;101149.41;4988663;27;98088;-73
2024/03/20 01:58:08;;;;;;;;;;;;;;;9.85;45.52;101128.63;4996920;27;98500;-70
2024/03/20 02:00:35;;;;;;;;;;;;;;;9.83;45.79;101134.25;4992939;27;98439;-73
2024/03/20 02:03:03;;;;;;;;;;;;;;;9.82;45.50;101143.41;4979679;27;99054;-71
2024/03/20 02:05:29;;;;;;;;;;;;;;;9.80;45.85;101140.13;4988097;27;98386;-70
2024/03/20 02:07:55;;;;;;;;;;;;;;;9.77;45.42;101135.22;4977312;27;99801;-70
2024/03/20 02:10:22;;;;;;;;;;;;;;;9.75;45.95;101140.06;4978747;27;98294;-73
2024/03/20 02:12:49;;;;;;;;;;;;;;;9.73;45.52;101138.66;4978698;27;98301;-73
2024/03/20 02:15:15;;;;;;;;;;;;;;;9.72;45.89;101137.03;4996206;27;98209;-71
2024/03/20 02:17:42;;;;;;;;;;;;;;;9.68;45.88;101133.19;4970489;27;98031;-73
2024/03/20 02:20:09;;;;;;;;;;;;;;;9.67;45.85;101139.63;4990552;27;100466;-70
2024/03/20 02:22:44;;;;;;;;;;;;;;;9.65;45.80;101149.84;4999211;27;98995;-70
2024/03/20 02:25:11;;;;;;;;;;;;;;;9.61;45.61;101138.75;4989656;27;98186;-73
2024/03/20 02:27:38;;;;;;;;;;;;;;;9.58;45.89;101140.03;4968719;27;97941;-70
2024/03/20 02:30:12;;;;;;;;;;;;;;;9.57;45.16;101141.09;4983467;27;98853;-73
2024/03/20 02:32:38;;;;;;;;;;;;;;;9.56;45.28;101144.03;4982530;27;98134;-73
2024/03/20 02:35:05;;;;;;;;;;;;;;;9.52;45.56;101142.91;5003578;27;98079;-73
2024/03/20 02:37:32;;;;;;;;;;;;;;;9.47;45.86;101138.25;4963879;27;98428;-70
2024/03/20 02:39:58;;;;;;;;;;;;;;;9.43;45.59;101128.19;4987379;27;98695;-70
2024/03/20 02:42:25;;;;;;;;;;;;;;;9.40;45.91;101134.09;4966290;27;98651;-72
2024/03/20 02:44:52;;;;;;;;;;;;;;;9.36;45.87;101138.31;4969761;27;98267;-70
2024/03/20 02:47:18;;;;;;;;;;;;;;;9.32;45.95;101130.72;4966989;27;97875;-73
2024/03/20 02:49:49;;;;;;;;;;;;;;;9.29;45.75;101128.53;4974381;27;98603;-73
2024/03/20 02:52:18;;;;;;;;;;;;;;;9.27;45.62;101132.50;4974184;27;98434;-73
2024/03/20 02:54:44;;;;;;;;;;;;;;;9.23;46.41;101129.47;4984398;27;98124;-73
2024/03/20 02:57:11;;;;;;;;;;;;;;;9.21;45.90;101130.78;4965985;27;98090;-70
2024/03/20 02:59:38;;;;;;;;;;;;;;;9.17;45.91;101127.78;4979186;27;98741;-73
2024/03/20 03:02:05;;;;;;;;;;;;;;;9.15;46.15;101132.56;4982415;27;99714;-70
2024/03/20 03:04:31;;;;;;;;;;;;;;;9.12;45.62;101125.00;4965630;27;98784;-73
2024/03/20 03:06:58;;;;;;;;;;;;;;;9.09;45.46;101128.16;4981488;27;97858;-70
2024/03/20 03:09:25;;;;;;;;;;;;;;;9.05;45.51;101125.13;4970653;27;98193;-70
2024/03/20 03:11:51;;;;;;;;;;;;;;;9.03;45.83;101129.94;5004579;27;98436;-70
2024/03/20 03:14:18;;;;;;;;;;;;;;;9.02;45.62;101130.19;4981518;27;98337;-70
2024/03/20 03:16:45;;;;;;;;;;;;;;;9.00;45.90;101132.28;4986158;27;99105;-70
2024/03/20 03:19:12;;;;;;;;;;;;;;;8.97;46.06;101138.97;4979890;27;98245;-70
2024/03/20 03:21:38;;;;;;;;;;;;;;;8.96;45.37;101140.03;4970159;27;98133;-72
2024/03/20 03:24:05;;;;;;;;;;;;;;;8.93;45.83;101135.13;4978508;27;98423;-73
2024/03/20 03:26:31;;;;;;;;;;;;;;;8.91;45.47;101136.41;4998232;27;98661;-70
2024/03/20 03:29:00;;;;;;;;;;;;;;;8.90;45.80;101140.16;4997276;27;98115;-70
2024/03/20 03:31:27;;;;;;;;;;;;;;;8.87;45.82;101135.25;4969558;27;98857;-70
2024/03/20 03:33:53;;;;;;;;;;;;;;;8.85;45.91;101140.91;4999488;27;98113;-70
2024/03/20 03:36:20;;;;;;;;;;;;;;;8.82;45.85;101136.81;4982716;27;98266;-73
2024/03/20 03:38:46;;;;;;;;;;;;;;;8.80;45.41;101144.31;4985075;27;98346;-73
2024/03/20 03:41:13;;;;;;;;;;;;;;;8.79;45.32;101139.16;4965418;27;102488;-71
2024/03/20 03:43:39;;;;;;;;;;;;;;;8.77;45.55;101134.03;4983884;27;98080;-70
2024/03/20 03:46:07;;;;;;;;;;;;;;;8.75;46.02;101138.00;4972289;27;97950;-72
2024/03/20 03:48:34;;;;;;;;;;;;;;;8.73;45.69;101148.19;4986803;27;100391;-73
2024/03/20 03:51:01;;;;;;;;;;;;;;;8.70;45.68;101143.28;4986990;27;98165;-73
2024/03/20 03:53:29;;;;;;;;;;;;;;;8.69;45.62;101141.66;4985922;27;97883;-73
2024/03/20 03:55:56;;;;;;;;;;;;;;;8.67;46.09;101143.75;4978005;27;99708;-70
2024/03/20 03:58:26;;;;;;;;;;;;;;;8.65;46.13;101151.25;5000664;27;98192;-70
2024/03/20 04:00:52;;;;;;;;;;;;;;;8.62;45.54;101152.53;4975962;27;98345;-73
2024/03/20 04:03:23;;;;;;;;;;;;;;;8.61;45.38;101153.59;5003932;27;97794;-70
2024/03/20 04:05:51;;;;;;;;;;;;;;;8.58;45.63;101154.88;4981973;27;97972;-73
2024/03/20 04:08:19;;;;;;;;;;;;;;;8.57;45.41;101160.50;4983341;27;100476;-70
2024/03/20 04:10:45;;;;;;;;;;;;;;;8.56;45.70;101166.91;4962838;27;98912;-70
2024/03/20 04:13:12;;;;;;;;;;;;;;;8.54;46.15;101169.03;4980528;27;98148;-73
2024/03/20 04:15:38;;;;;;;;;;;;;;;8.52;45.38;101163.06;4964545;27;98131;-73
2024/03/20 04:18:05;;;;;;;;;;;;;;;8.50;45.56;101170.56;4973731;27;98396;-73
2024/03/20 04:20:31;;;;;;;;;;;;;;;8.46;45.63;101167.50;4983327;27;98006;-73
2024/03/20 04:22:58;;;;;;;;;;;;;;;8.45;46.04;101173.94;4961880;27;98152;-70
2024/03/20 04:25:28;;;;;;;;;;;;;;;8.45;45.92;101181.16;4980425;27;98919;-73
2024/03/20 04:27:55;;;;;;;;;;;;;;;8.43;45.39;101177.91;4981500;27;99459;-71
2024/03/20 04:30:21;;;;;;;;;;;;;;;8.42;45.56;101178.97;4985357;27;99326;-73
2024/03/20 04:32:47;;;;;;;;;;;;;;;8.42;45.70;101170.91;4979552;27;98180;-73
2024/03/20 04:35:13;;;;;;;;;;;;;;;8.42;45.52;101176.28;4982109;27;99754;-73
2024/03/20 04:37:39;;;;;;;;;;;;;;;8.42;45.89;101174.41;4980686;27;97872;-70
2024/03/20 04:40:08;;;;;;;;;;;;;;;8.42;45.96;101171.72;4998793;27;102761;-74
2024/03/20 04:42:34;;;;;;;;;;;;;;;8.45;45.81;101175.78;4999644;27;98138;-70
2024/03/20 04:45:01;;;;;;;;;;;;;;;8.47;45.73;101174.50;5005906;27;130275;-70
2024/03/20 04:47:27;;;;;;;;;;;;;;;8.49;45.32;101174.28;5016005;27;98357;-70
2024/03/20 04:49:53;;;;;;;;;;;;;;;8.50;46.21;101183.97;4982195;27;117530;-73
2024/03/20 04:52:19;;;;;;;;;;;;;;;8.52;45.66;101181.88;4982029;27;103525;-73
2024/03/20 04:54:45;;;;;;;;;;;;;;;8.55;46.11;101192.16;4980460;27;98151;-73
2024/03/20 04:57:11;;;;;;;;;;;;;;;8.61;45.78;101183.16;4980986;27;107358;-70
2024/03/20 04:59:37;;;;;;;;;;;;;;;8.68;46.22;101186.50;4983011;27;98507;-70
2024/03/20 05:02:03;;;;;;;;;;;;;;;8.77;46.29;101184.28;4986164;27;98257;-73
2024/03/20 05:04:29;;;;;;;;;;;;;;;8.84;45.52;101195.69;4966652;27;98056;-73
2024/03/20 05:06:55;;;;;;;;;;;;;;;8.90;45.57;101191.25;4983129;27;125789;-73
2024/03/20 05:09:22;;;;;;;;;;;;;;;8.96;46.05;101190.28;4984387;27;100790;-74
2024/03/20 05:11:48;;;;;;;;;;;;;;;9.00;45.58;101188.75;4985513;27;98126;-73
2024/03/20 05:14:14;;;;;;;;;;;;;;;9.03;45.59;101194.47;4979569;27;118072;-70
2024/03/20 05:16:40;;;;;;;;;;;;;;;9.08;45.88;101189.22;4999754;27;98736;-71
2024/03/20 05:19:06;;;;;;;;;;;;;;;9.14;46.19;101194.69;4980293;27;99122;-70
2024/03/20 05:21:32;;;;;;;;;;;;;;;9.17;45.61;101188.81;4982737;27;97789;-72
2024/03/20 05:23:58;;;;;;;;;;;;;;;9.20;45.87;101193.72;4977583;27;128166;-73
2024/03/20 05:26:24;;;;;;;;;;;;;;;9.25;46.04;101196.50;4976449;27;110592;-70
2024/03/20 05:28:50;;;;;;;;;;;;;;;9.28;45.41;101198.72;4964132;27;127550;-70
2024/03/20 05:31:29;;;;;;;;;;;;;;;9.31;45.55;101191.00;4980770;27;98563;-70
2024/03/20 05:33:56;;;;;;;;;;;;;;;9.37;45.46;101196.47;4960904;27;99062;-70
2024/03/20 05:36:22;;;;;;;;;;;;;;;9.41;45.31;101189.53;4977494;27;98115;-73
2024/03/20 05:38:48;;;;;;;;;;;;;;;9.43;45.78;101190.94;4985392;27;98487;-73
2024/03/20 05:41:15;;;;;;;;;;;;;;;9.45;45.61;101188.00;4980381;27;97961;-72
2024/03/20 05:43:41;;;;;;;;;;;;;;;9.47;45.46;101183.16;4976310;27;98517;-70
2024/03/20 05:46:11;;;;;;;;;;;;;;;9.47;45.29;101184.00;4980406;27;99083;-70
2024/03/20 05:48:38;;;;;;;;;;;;;;;9.49;45.53;101189.94;4980645;27;99035;-70
2024/03/20 05:51:04;;;;;;;;;;;;;;;9.52;45.76;101189.47;4960463;27;98026;-73
2024/03/20 05:53:31;;;;;;;;;;;;;;;9.53;45.07;101191.09;4961287;27;98405;-70
2024/03/20 05:55:58;;;;;;;;;;;;;;;9.54;45.50;101190.03;4958860;27;98440;-70
2024/03/20 05:58:24;;;;;;;;;;;;;;;9.54;45.50;101198.09;4998711;27;99848;-70
2024/03/20 06:00:51;;;;;;;;;;;;;;;9.55;45.42;101201.63;4971161;27;98546;-73
2024/03/20 06:03:18;;;;;;;;;;;;;;;9.57;45.51;101188.75;4976794;27;98665;-70
2024/03/20 06:05:45;;;;;;;;;;;;;;;9.61;44.90;101194.44;4976353;27;99965;-70
2024/03/20 06:08:12;;;;;;;;;;;;;;;9.65;44.98;101193.72;4960772;27;98129;-70
2024/03/20 06:10:38;;;;;;;;;;;;;;;9.70;45.09;101199.19;4965068;27;98496;-73
2024/03/20 06:13:04;;;;;;;;;;;;;;;9.76;45.59;101192.03;4965518;27;98211;-69
2024/03/20 06:15:33;;;;;;;;;;;;;;;9.86;45.32;101191.34;4992951;27;109359;-73
2024/03/20 06:17:59;;;;;;;;;;;;;;;9.92;45.91;101196.59;4967076;27;98188;-73
2024/03/20 06:20:26;;;;;;;;;;;;;;;10.01;45.70;101194.28;4967173;27;98428;-70
2024/03/20 06:22:52;;;;;;;;;;;;;;;10.08;45.65;101190.38;4963909;27;99620;-70
2024/03/20 06:25:19;;;;;;;;;;;;;;;10.15;44.96;101190.22;4957093;27;98294;-70
2024/03/20 06:27:45;;;;;;;;;;;;;;;10.21;44.91;101199.97;4968151;27;98253;-70
2024/03/20 06:30:15;;;;;;;;;;;;;;;10.25;44.88;101200.34;4961507;27;98446;-73
2024/03/20 06:32:42;;;;;;;;;;;;;;;10.32;45.21;101201.81;4981531;27;98345;-70
2024/03/20 06:35:11;;;;;;;;;;;;;;;10.35;45.52;101192.41;4980612;27;98110;-70
2024/03/20 06:37:38;;;;;;;;;;;;;;;10.40;45.51;101203.25;4969665;27;98057;-70
2024/03/20 06:40:11;;;;;;;;;;;;;;;10.44;45.33;101206.28;4986323;27;98181;-70
2024/03/20 06:42:38;;;;;;;;;;;;;;;10.51;45.11;101201.53;4985842;27;98490;-70
2024/03/20 06:45:05;;;;;;;;;;;;;;;10.57;45.21;101204.06;4979900;27;98209;-70
2024/03/20 06:47:31;;;;;;;;;;;;;;;10.67;45.19;101199.84;4985527;27;100133;-70
2024/03/20 06:49:58;;;;;;;;;;;;;;;10.77;45.24;101198.09;4967678;27;98148;-72
2024/03/20 06:52:25;;;;;;;;;;;;;;;10.88;44.81;101201.72;4977935;27;98500;-73
2024/03/20 06:54:51;;;;;;;;;;;;;;;11.01;44.91;101206.75;5000631;27;98174;-73
2024/03/20 06:57:19;;;;;;;;;;;;;;;11.14;44.84;101204.72;4983039;27;99660;-73
2024/03/20 06:59:45;;;;;;;;;;;;;;;11.26;45.06;101213.50;4982745;27;98283;-69
2024/03/20 07:02:13;;;;;;;;;;;;;;;11.40;44.63;101205.81;5001454;27;97949;-72
2024/03/20 07:04:39;;;;;;;;;;;;;;;11.52;44.79;101198.38;4972594;27;98096;-70
2024/03/20 07:07:05;;;;;;;;;;;;;;;11.62;44.76;101198.47;4977199;27;98092;-70
2024/03/20 07:09:32;;;;;;;;;;;;;;;11.73;44.87;101202.88;4980203;27;98084;-70
2024/03/20 07:11:59;;;;;;;;;;;;;;;11.78;44.78;101213.72;4954288;27;98206;-71
2024/03/20 07:14:28;;;;;;;;;;;;;;;11.87;44.69;101206.00;4980834;27;99413;-73
2024/03/20 07:16:56;;;;;;;;;;;;;;;11.98;44.58;101210.41;4985956;27;100076;-72
2024/03/20 07:19:22;;;;;;;;;;;;;;;12.14;44.71;101213.22;4962042;27;97957;-70
2024/03/20 07:21:49;;;;;;;;;;;;;;;12.26;44.56;101203.03;4976685;27;98345;-73
2024/03/20 07:24:16;;;;;;;;;;;;;;;12.37;44.53;101203.91;4968452;27;98252;-72
2024/03/20 07:26:43;;;;;;;;;;;;;;;12.54;44.60;101201.88;5000227;27;98417;-73
2024/03/20 07:29:10;;;;;;;;;;;;;;;12.69;44.42;101198.41;4978253;27;98323;-73
2024/03/20 07:31:38;;;;;;;;;;;;;;;12.88;44.45;101198.75;4980578;27;99500;-72
2024/03/20 07:34:05;;;;;;;;;;;;;;;13.06;44.34;101194.78;4983262;27;98101;-72
2024/03/20 07:36:33;;;;;;;;;;;;;;;13.21;43.95;101187.50;4968226;27;99415;-72
2024/03/20 07:39:00;;;;;;;;;;;;;;;13.43;43.86;101184.56;4963976;27;98121;-73
2024/03/20 07:41:26;;;;;;;;;;;;;;;13.69;44.03;101184.63;4981689;27;98041;-73
2024/03/20 07:43:53;;;;;;;;;;;;;;;13.98;43.80;101190.28;4974895;27;99263;-70
2024/03/20 07:46:19;;;;;;;;;;;;;;;14.29;43.72;101184.81;4964073;27;98271;-70
2024/03/20 07:48:47;;;;;;;;;;;;;;;14.60;43.63;101188.28;4979552;27;98084;-70
2024/03/20 07:51:18;;;;;;;;;;;;;;;14.93;43.18;101182.19;4966563;27;98036;-73
2024/03/20 07:53:45;;;;;;;;;;;;;;;15.29;43.06;101187.41;4967493;27;98076;-73
2024/03/20 07:56:11;;;;;;;;;;;;;;;15.73;43.07;101197.47;4978916;27;98461;-70
2024/03/20 07:58:37;;;;;;;;;;;;;;;16.12;42.55;101189.22;4965017;27;98027;-69
2024/03/20 08:01:04;;;;;;;;;;;;;;;16.45;42.52;101189.44;4976785;27;99086;-72
2024/03/20 08:03:31;;;;;;;;;;;;;;;16.82;42.64;101186.03;4966548;27;98941;-70
2024/03/20 08:06:00;;;;;;;;;;;;;;;17.21;42.26;101189.59;4963114;27;98160;-70
2024/03/20 08:08:27;;;;;;;;;;;;;;;17.62;42.35;101182.44;4997828;27;98125;-68
2024/03/20 08:10:53;;;;;;;;;;;;;;;18.10;42.02;101181.38;4979943;27;98107;-70
2024/03/20 08:13:20;;;;;;;;;;;;;;;18.97;41.49;101177.75;4984231;27;98339;-70
2024/03/20 08:15:47;;;;;;;;;;;;;;;20.00;40.76;101171.50;4985998;27;99604;-70
2024/03/20 08:18:14;;;;;;;;;;;;;;;20.98;40.33;101175.88;4964088;28;98019;-72
2024/03/20 08:20:41;;;;;;;;;;;;;;;22.16;39.72;101177.59;4954568;27;98089;-70
2024/03/20 08:23:08;;;;;;;;;;;;;;;23.50;38.66;101183.25;4983138;27;98465;-73
2024/03/20 08:25:35;;;;;;;;;;;;;;;24.55;38.42;101196.72;4979369;27;98036;-71
2024/03/20 08:28:03;;;;;;;;;;;;;;;25.46;38.20;101195.19;4964699;27;98876;-73
2024/03/20 08:30:29;;;;;;;;;;;;;;;26.05;38.22;101192.88;4948274;27;98395;-72
2024/03/20 08:32:56;;;;;;;;;;;;;;;26.65;37.93;101199.13;4950445;27;99834;-73
2024/03/20 08:35:23;;;;;;;;;;;;;;;27.15;38.21;101197.50;4962095;27;98221;-73
2024/03/20 08:37:49;;;;;;;;;;;;;;;27.61;37.94;101203.19;4970285;27;98138;-73
2024/03/20 08:40:15;;;;;;;;;;;;;;;27.98;38.35;101195.25;4963576;27;98293;-70
2024/03/20 08:42:42;;;;;;;;;;;;;;;28.13;38.75;101199.81;4967832;27;98345;-71
2024/03/20 08:45:10;;;;;;;;;;;;;;;28.35;38.59;101195.47;4978586;27;98611;-71
2024/03/20 08:47:37;;;;;;;;;;;;;;;28.55;39.00;101190.66;4971461;27;98454;-70
2024/03/20 08:50:04;;;;;;;;;;;;;;;28.77;38.66;101183.47;4947055;27;98114;-68
2024/03/20 08:52:30;;;;;;;;;;;;;;;28.84;38.96;101180.78;4979054;27;97925;-68
2024/03/20 08:54:57;;;;;;;;;;;;;;;28.93;39.27;101171.41;4965264;27;99641;-70
2024/03/20 08:57:24;;;;;;;;;;;;;;;28.96;39.36;101176.19;4944079;27;98462;-69
2024/03/20 09:00:11;;;;;;;;;;;;;;;28.96;39.58;101167.84;4965027;27;99572;-68
2024/03/20 09:02:38;;;;;;;;;;;;;;;29.21;40.04;101168.22;4973004;27;98086;-71
2024/03/20 09:05:05;;;;;;;;;;;;;;;29.38;39.81;101166.84;4964006;27;98095;-68
2024/03/20 09:07:31;;;;;;;;;;;;;;;29.61;39.96;101164.75;4957325;27;98814;-71
2024/03/20 09:09:57;;;;;;;;;;;;;;;29.77;39.73;101161.72;4964686;27;97982;-71
2024/03/20 09:12:23;;;;;;;;;;;;;;;30.09;39.83;101160.03;4967209;27;98354;-70
2024/03/20 09:14:50;;;;;;;;;;;;;;;30.43;39.70;101165.50;4953878;27;98118;-68
2024/03/20 09:17:16;;;;;;;;;;;;;;;30.73;39.77;101158.94;4963260;27;98380;-72
2024/03/20 09:19:43;;;;;;;;;;;;;;;31.00;39.88;101163.06;4984671;27;98090;-70
2024/03/20 09:22:09;;;;;;;;;;;;;;;31.25;39.94;101154.84;4986684;27;97997;-72
2024/03/20 09:24:37;;;;;;;;;;;;;;;31.52;39.76;101160.13;4986885;27;99709;-72
2024/03/20 09:27:04;;;;;;;;;;;;;;;31.78;39.99;101159.75;4972395;27;98407;-70
2024/03/20 09:29:30;;;;;;;;;;;;;;;32.08;39.66;101155.84;4987020;27;98332;-69
2024/03/20 09:31:57;;;;;;;;;;;;;;;32.41;39.79;101151.84;4982551;27;98403;-70
2024/03/20 09:34:23;;;;;;;;;;;;;;;32.67;39.76;101147.81;4987664;27;98845;-69
2024/03/20 09:36:52;;;;;;;;;;;;;;;32.85;39.79;101150.56;4966079;27;98121;-70
2024/03/20 09:39:19;;;;;;;;;;;;;;;33.10;39.52;101146.91;4982136;27;103413;-72
2024/03/20 09:41:46;;;;;;;;;;;;;;;33.45;39.53;101143.16;4984057;27;98013;-72
2024/03/20 09:44:12;;;;;;;;;;;;;;;33.73;39.81;101136.59;4985990;27;98565;-70
2024/03/20 09:46:38;;;;;;;;;;;;;;;34.05;39.30;101139.16;4989124;27;98582;-72
2024/03/20 09:49:05;;;;;;;;;;;;;;;34.31;39.40;101134.13;4993287;27;98228;-71
2024/03/20 09:51:31;;;;;;;;;;;;;;;34.69;39.33;101134.97;4991245;27;100436;-69
2024/03/20 09:53:58;;;;;;;;;;;;;;;34.90;39.29;101131.91;4973614;27;98246;-72
2024/03/20 09:56:27;;;;;;;;;;;;;;;34.60;39.84;101126.28;4984898;27;99680;-69
2024/03/20 09:58:54;;;;;;;;;;;;;;;35.08;39.61;101125.31;5004128;27;98045;-69
2024/03/20 10:01:20;;;;;;;;;;;;;;;35.44;39.30;101120.00;4984169;27;98293;-69
2024/03/20 10:03:53;;;;;;;;;;;;;;;35.77;39.06;101121.13;4995815;27;99218;-72
2024/03/20 10:06:29;;;;;;;;;;;;;;;36.24;38.96;101126.78;4987203;27;97996;-72
2024/03/20 10:08:56;;;;;;;;;;;;;;;36.57;38.59;101119.34;5004348;27;98057;-72
2024/03/20 10:11:23;;;;;;;;;;;;;;;36.89;38.97;101122.72;4984364;27;98669;-70
2024/03/20 10:13:49;;;;;;;;;;;;;;;36.61;38.79;101113.66;4973349;27;98043;-72
2024/03/20 10:16:17;;;;;;;;;;;;;;;36.55;39.35;101119.00;4965799;27;98100;-69
2024/03/20 10:18:44;;;;;;;;;;;;;;;36.40;39.64;101117.66;4981554;27;98109;-69
2024/03/20 10:21:10;;;;;;;;;;;;;;;35.95;39.81;101115.22;4983404;27;99562;-72
2024/03/20 10:23:46;;;;;;;;;;;;;;;35.43;40.55;101112.81;4984513;27;97952;-69
2024/03/20 10:26:16;;;;;;;;;;;;;;;34.75;40.91;101110.13;4965727;27;98149;-72
2024/03/20 10:28:46;;;;;;;;;;;;;;;34.18;41.49;101106.69;4967589;27;98132;-69
2024/03/20 10:31:13;;;;;;;;;;;;;;;33.79;41.67;101107.00;4990846;27;97977;-71
2024/03/20 10:33:40;;;;;;;;;;;;;;;33.51;41.30;101108.00;4966393;27;98264;-72
2024/03/20 10:36:07;;;;;;;;;;;;;;;33.35;41.20;101108.47;4965566;27;98229;-69
2024/03/20 10:38:34;;;;;;;;;;;;;;;33.50;41.52;101109.22;4966480;27;98321;-71
2024/03/20 10:41:02;;;;;;;;;;;;;;;33.67;40.72;101113.09;4967967;27;98053;-71
2024/03/20 10:43:29;;;;;;;;;;;;;;;33.99;40.29;101109.25;5003739;27;98311;-69
2024/03/20 10:45:56;;;;;;;;;;;;;;;34.31;40.21;101100.56;4970859;27;98384;-69
2024/03/20 10:48:23;;;;;;;;;;;;;;;34.06;40.72;101096.00;4969558;27;98114;-71
2024/03/20 10:50:51;;;;;;;;;;;;;;;34.76;40.05;101094.91;4983506;27;99257;-69
2024/03/20 10:53:21;;;;;;;;;;;;;;;34.72;39.82;101092.16;5020581;27;98119;-69
2024/03/20 10:55:51;;;;;;;;;;;;;;;34.12;40.81;101090.78;4973776;27;98235;-71
2024/03/20 10:58:18;;;;;;;;;;;;;;;33.95;40.73;101086.91;4987024;27;98367;-71
2024/03/20 11:00:54;;;;;;;;;;;;;;;34.10;40.78;101085.59;4983122;27;98545;-71
2024/03/20 11:03:43;;;;;;;;;;;;;;;34.38;40.48;101086.50;5015903;27;98177;-71
2024/03/20 11:09:20;;;;;;;;;;;;;;;34.12;40.63;101080.38;5006256;27;98229;-69
2024/03/20 11:11:47;;;;;;;;;;;;;;;33.53;41.41;101074.09;4985001;27;98112;-69
2024/03/20 11:14:15;;;;;;;;;;;;;;;33.04;41.42;101075.94;5002568;27;99439;-69
2024/03/20 11:16:42;;;;;;;;;;;;;;;32.93;41.76;101074.03;4965467;27;99809;-71
2024/03/20 11:19:09;;;;;;;;;;;;;;;33.07;40.88;101075.94;4994842;27;98230;-69
2024/03/20 11:21:38;;;;;;;;;;;;;;;32.94;41.50;101078.41;4989014;27;98198;-69
2024/03/20 11:24:05;;;;;;;;;;;;;;;32.95;40.92;101085.56;5002296;27;98194;-71
2024/03/20 11:26:34;;;;;;;;;;;;;;;32.88;40.97;101076.41;4979422;27;98399;-71
2024/03/20 11:29:03;;;;;;;;;;;;;;;33.17;40.59;101082.66;4961702;27;98646;-69
2024/03/20 11:31:29;;;;;;;;;;;;;;;33.41;40.58;101078.91;4985553;27;97921;-68
2024/03/20 11:33:56;;;;;;;;;;;;;;;33.63;40.34;101085.16;4980957;27;99984;-69
2024/03/20 11:36:22;;;;;;;;;;;;;;;33.81;40.60;101073.06;4987088;27;98270;-69
2024/03/20 11:38:49;;;;;;;;;;;;;;;33.86;40.65;101081.00;4980105;27;98350;-71
2024/03/20 11:41:19;;;;;;;;;;;;;;;34.07;40.44;101066.06;4970911;27;99473;-69
2024/03/20 11:43:46;;;;;;;;;;;;;;;34.07;40.53;101075.22;4980636;27;99353;-69
2024/03/20 11:46:17;;;;;;;;;;;;;;;34.16;40.65;101077.56;4988310;27;98594;-71
2024/03/20 11:48:47;;;;;;;;;;;;;;;34.31;40.17;101072.59;4989003;27;97915;-69
2024/03/20 11:51:19;;;;;;;;;;;;;;;34.33;40.21;101067.38;4988510;27;98759;-71
2024/03/20 11:53:47;;;;;;;;;;;;;;;34.23;40.67;101066.28;4982312;27;100834;-69
2024/03/20 11:56:13;;;;;;;;;;;;;;;34.22;40.50;101066.72;4981438;27;98132;-71
2024/03/20 11:58:40;;;;;;;;;;;;;;;34.07;40.54;101061.25;4982343;27;98438;-72
2024/03/20 12:01:08;;;;;;;;;;;;;;;34.17;40.63;101062.38;4965959;27;98185;-71
2024/03/20 12:03:38;;;;;;;;;;;;;;;34.31;40.49;101058.59;4978696;27;98978;-69
2024/03/20 12:06:25;;;;;;;;;;;;;;;34.36;40.45;101055.38;4985779;27;98333;-69
2024/03/20 12:08:52;;;;;;;;;;;;;;;34.36;40.76;101044.19;4985602;27;98504;-71
2024/03/20 12:11:23;;;;;;;;;;;;;;;34.36;40.56;101041.38;4970164;27;98076;-71
2024/03/20 12:13:52;;;;;;;;;;;;;;;34.35;40.77;101049.00;4995701;27;98058;-69
2024/03/20 12:16:21;;;;;;;;;;;;;;;34.28;40.47;101040.69;4983429;27;97950;-71
2024/03/20 12:18:48;;;;;;;;;;;;;;;34.16;41.03;101039.19;4976604;27;98187;-69
2024/03/20 12:21:15;;;;;;;;;;;;;;;34.09;40.78;101038.47;4989773;27;102731;-69
2024/03/20 12:23:41;;;;;;;;;;;;;;;34.01;40.79;101029.38;4970000;27;98894;-72
2024/03/20 12:26:09;;;;;;;;;;;;;;;33.92;41.27;101026.25;4970110;27;99964;-69
2024/03/20 12:28:35;;;;;;;;;;;;;;;33.91;41.09;101031.03;4969215;27;98722;-69
2024/03/20 12:31:02;;;;;;;;;;;;;;;33.87;40.68;101021.88;4967883;27;98824;-69
2024/03/20 12:33:29;;;;;;;;;;;;;;;33.79;41.08;101027.94;4984842;27;97851;-71
2024/03/20 12:35:59;;;;;;;;;;;;;;;33.71;41.11;101028.00;4979129;27;98841;-69
2024/03/20 12:38:26;;;;;;;;;;;;;;;33.70;41.07;101028.44;4997780;27;98208;-69
2024/03/20 12:40:52;;;;;;;;;;;;;;;33.58;41.23;101018.56;4983907;27;98205;-71
2024/03/20 12:43:19;;;;;;;;;;;;;;;33.49;41.56;101026.63;5003067;27;98083;-69